Candeias, Brazil
Current Conditions -  °F | °C
As of 10:00 AM on Saturday 25 Oct 2014 (Local Time) from SBPR Reporting Station
Clear Clear  
Wind Chill: 75°   Ceiling: Unl
Heat Index: 75°   Visibility: 6mi
Dew Point: 59°   Wind: 6mph
Humidity: 57%   Direction: 100°E
Pressure: 30.06"   Gusts: NA
Location:  20.77°S, 45.28°W
Report Text: SBPR 251200Z 10005KT CAVOK 24/15 Q1018
Loading
Personal Weather Stations






























Interactive Weather Map
Tropical Storm Tracking
New forecast layout! Learn more

10-Day Weather Forecast

Advertisements
Track Severe Weather on mobile